Time;durP1;ratioP1;P1;durP2;ratioP2;P2;SDS_P1;SDS_P2;PMS_P1;PMS_P2;Temp;Humidity;BMP_temperature;BMP_pressure;BME280_temperature;BME280_humidity;BME280_pressure;Samples;Min_cycle;Max_cycle;Signal;HPM_P1;HPM_P2
2022/04/07 00:00:06;;;;;;;0.40;0.30;;;8.30;1.40;;;8.88;100.00;94066.22;646566;212;42153;-74
2022/04/07 00:02:47;;;;;;;1.60;0.30;;;8.30;1.40;;;9.29;100.00;94063.98;646319;216;31942;-74
2022/04/07 00:05:29;;;;;;;0.57;0.50;;;8.80;1.40;;;9.26;100.00;94062.97;646367;212;32700;-76
2022/04/07 00:08:11;;;;;;;0.43;0.32;;;8.70;1.40;;;9.28;100.00;94064.63;637575;216;31673;-75
2022/04/07 00:10:53;;;;;;;1.70;0.50;;;8.80;1.40;;;9.47;100.00;94061.53;619330;222;31870;-75
2022/04/07 00:13:34;;;;;;;0.70;0.50;;;8.90;1.40;;;9.53;100.00;94073.98;620676;222;31815;-74
2022/04/07 00:16:16;;;;;;;0.73;0.53;;;9.00;1.40;;;9.34;100.00;94069.44;620332;222;31816;-75
2022/04/07 00:18:59;;;;;;;0.60;0.50;;;8.80;1.40;;;9.40;100.00;94069.97;648226;216;31509;-75
2022/04/07 00:21:45;;;;;;;0.40;0.40;;;8.80;1.40;;;9.26;100.00;94068.98;647882;216;31478;-76
2022/04/07 00:24:22;;;;;;;0.50;0.40;;;8.70;1.40;;;9.22;100.00;94063.33;647807;216;31466;-76
2022/04/07 00:27:03;;;;;;;0.60;0.50;;;8.60;1.40;;;9.21;100.00;94054.19;647832;216;31534;-76
2022/04/07 00:29:45;;;;;;;0.40;0.30;;;8.60;1.40;;;9.15;100.00;94048.66;646679;212;31528;-75
2022/04/07 00:32:30;;;;;;;0.50;0.40;;;8.50;1.40;;;9.11;100.00;94054.89;650402;214;31572;-76
2022/04/07 00:35:51;;;;;;;0.40;0.40;;;8.40;1.40;;;9.15;100.00;94052.64;646864;212;32068;-76
2022/04/07 00:38:35;;;;;;;0.90;0.40;;;8.60;1.40;;;9.24;100.00;94048.71;646960;212;31498;-76
2022/04/07 00:41:17;;;;;;;0.40;0.20;;;8.60;1.40;;;9.17;100.00;94052.46;646225;216;31605;-75
2022/04/07 00:43:59;;;;;;;0.40;0.30;;;8.50;1.40;;;9.22;100.00;94056.03;648586;212;31519;-74
2022/04/07 00:46:44;;;;;;;0.40;0.40;;;8.60;1.40;;;9.29;100.00;94048.97;643869;217;31459;-74
2022/04/07 00:49:26;;;;;;;0.70;0.50;;;8.60;1.40;;;9.23;100.00;94047.23;647044;216;31502;-76
2022/04/07 00:52:08;;;;;;;0.50;0.40;;;8.60;1.40;;;9.36;100.00;94043.46;646387;216;31509;-76
2022/04/07 00:54:52;;;;;;;0.50;0.40;;;8.60;1.40;;;9.22;100.00;94041.87;648567;216;31518;-76
2022/04/07 00:57:34;;;;;;;0.60;0.47;;;8.60;1.40;;;9.42;100.00;94036.28;647904;216;31583;-76
2022/04/07 01:00:16;;;;;;;0.70;0.40;;;8.80;1.40;;;9.45;100.00;94046.55;647944;212;31606;-76
2022/04/07 01:03:01;;;;;;;0.63;0.40;;;8.80;1.40;;;9.62;100.00;94035.27;646573;216;31497;-76
2022/04/07 01:08:18;;;;;;;0.40;0.30;;;8.90;1.40;;;9.65;100.00;94032.09;636788;216;31628;-76
2022/04/07 01:10:59;;;;;;;0.57;0.40;;;8.90;1.40;;;9.71;100.00;94032.23;646856;212;31572;-76
2022/04/07 01:13:46;;;;;;;1.00;0.60;;;9.10;1.40;;;9.77;100.00;94031.66;646635;212;31603;-76
2022/04/07 01:16:32;;;;;;;0.60;0.40;;;9.10;1.40;;;9.81;100.00;94033.60;646766;216;31593;-76
2022/04/07 01:19:13;;;;;;;1.80;0.50;;;9.20;1.40;;;9.70;100.00;94025.31;648095;216;32928;-75
2022/04/07 01:21:55;;;;;;;0.40;0.30;;;9.00;1.40;;;9.71;100.00;94022.61;647436;216;31562;-76
2022/04/07 01:24:41;;;;;;;0.60;0.40;;;8.90;1.40;;;9.65;100.00;94017.84;647902;216;31479;-76
2022/04/07 01:27:29;;;;;;;0.40;0.40;;;8.90;1.40;;;9.66;100.00;94018.46;621303;222;32010;-75
2022/04/07 01:30:14;;;;;;;0.50;0.30;;;9.00;1.40;;;9.64;100.00;94017.09;649713;212;31509;-76
2022/04/07 01:32:57;;;;;;;1.00;0.50;;;8.90;1.40;;;9.64;100.00;94010.77;647492;212;42038;-76
2022/04/07 01:35:53;;;;;;;0.50;0.50;;;9.00;1.40;;;9.76;100.00;94006.50;648271;216;31463;-76
2022/04/07 01:38:36;;;;;;;0.80;0.70;;;9.10;1.40;;;9.84;100.00;94008.67;647884;212;31491;-76
2022/04/07 01:41:24;;;;;;;0.70;0.50;;;9.20;1.40;;;9.80;100.00;94008.38;648107;216;31536;-76
2022/04/07 01:44:06;;;;;;;0.75;0.30;;;9.10;1.40;;;9.79;100.00;94001.17;647116;216;32025;-77
2022/04/07 01:46:51;;;;;;;0.47;0.40;;;9.10;1.40;;;9.82;100.00;93992.12;648899;216;32580;-76
2022/04/07 01:49:30;;;;;;;0.60;0.60;;;9.10;1.40;;;9.75;100.00;93997.04;647622;212;32026;-76
2022/04/07 01:52:18;;;;;;;0.40;0.30;;;9.10;1.40;;;9.80;100.00;93994.09;646207;216;31687;-74
2022/04/07 01:55:06;;;;;;;0.40;0.37;;;9.10;1.40;;;9.92;100.00;93994.69;647819;216;31491;-75
2022/04/07 01:57:54;;;;;;;0.50;0.40;;;9.20;1.40;;;9.96;100.00;93997.09;645966;216;31579;-75
2022/04/07 02:00:43;;;;;;;0.50;0.40;;;9.30;1.40;;;9.82;100.00;93995.66;648752;216;31527;-75
2022/04/07 02:03:25;;;;;;;0.60;0.50;;;9.20;1.40;;;9.81;100.00;93999.22;648717;212;31754;-76
2022/04/07 02:06:13;;;;;;;0.60;0.40;;;9.10;1.40;;;9.87;100.00;93997.59;648710;212;42108;-77
2022/04/07 02:08:54;;;;;;;0.60;0.45;;;9.10;1.40;;;9.93;100.00;93989.45;647705;216;31472;-76
2022/04/07 02:11:36;;;;;;;0.67;0.53;;;9.20;1.40;;;9.89;100.00;93996.20;647599;216;31501;-76
2022/04/07 02:14:19;;;;;;;0.50;0.40;;;9.20;1.40;;;9.96;100.00;93995.30;648214;216;31606;-76
2022/04/07 02:17:03;;;;;;;0.70;0.55;;;9.30;1.40;;;9.95;100.00;93993.14;647890;212;31660;-76
2022/04/07 02:19:47;;;;;;;0.95;0.37;;;9.20;1.40;;;9.76;100.00;93993.27;648575;216;31561;-76
2022/04/07 02:22:30;;;;;;;0.70;0.60;;;9.20;1.40;;;9.70;100.00;93995.59;648344;216;31470;-77
2022/04/07 02:25:12;;;;;;;0.53;0.50;;;9.00;1.40;;;9.65;100.00;93995.35;647654;216;31541;-74
2022/04/07 02:27:55;;;;;;;0.90;0.50;;;9.00;1.40;;;9.62;100.00;93992.31;620936;226;31989;-76
2022/04/07 02:30:40;;;;;;;1.00;0.57;;;9.00;1.40;;;9.64;100.00;93986.66;647259;212;32016;-76
2022/04/07 02:35:51;;;;;;;1.15;0.47;;;9.00;1.40;;;9.79;100.00;93987.30;622506;222;31811;-76
2022/04/07 02:38:32;;;;;;;2.43;0.83;;;9.20;1.40;;;9.75;100.00;93990.78;649365;212;31810;-76
2022/04/07 02:41:15;;;;;;;0.60;0.40;;;9.00;1.40;;;9.78;100.00;93992.28;646783;212;32129;-76
2022/04/07 02:44:02;;;;;;;0.60;0.40;;;9.00;1.40;;;9.79;100.00;93994.44;619963;222;32289;-75
2022/04/07 02:46:41;;;;;;;0.60;0.60;;;9.10;1.40;;;9.88;100.00;93994.85;649011;216;31385;-75
2022/04/07 02:49:24;;;;;;;0.50;0.40;;;9.20;1.40;;;9.85;100.00;93991.27;647275;216;31601;-75
2022/04/07 02:52:10;;;;;;;0.60;0.50;;;9.10;1.40;;;9.69;100.00;93989.71;648383;216;31528;-77
2022/04/07 02:54:51;;;;;;;0.60;0.40;;;9.00;1.40;;;9.68;100.00;93988.68;648796;212;31512;-76
2022/04/07 02:57:43;;;;;;;0.40;0.40;;;9.00;1.40;;;9.62;100.00;93995.16;647742;216;31569;-75
2022/04/07 03:00:31;;;;;;;0.50;0.40;;;9.00;1.40;;;9.39;100.00;93998.43;648466;212;31869;-76
2022/04/07 03:05:49;;;;;;;0.50;0.40;;;9.00;1.40;;;9.46;100.00;94001.63;647317;212;31520;-76
2022/04/07 03:08:34;;;;;;;0.40;0.20;;;8.80;1.40;;;9.39;100.00;93996.20;621337;226;31859;-76
2022/04/07 03:11:17;;;;;;;0.60;0.40;;;8.80;1.40;;;9.44;100.00;93999.05;645991;212;31689;-76
2022/04/07 03:13:59;;;;;;;1.60;0.40;;;8.80;1.40;;;9.44;100.00;93989.48;620088;222;31828;-76
2022/04/07 03:19:15;;;;;;;0.40;0.20;;;8.90;1.40;;;9.42;100.00;93994.86;646274;212;31869;-76
2022/04/07 03:22:02;;;;;;;0.40;0.30;;;8.80;1.40;;;9.41;100.00;93986.93;647002;216;31513;-74
2022/04/07 03:24:50;;;;;;;0.50;0.30;;;8.80;1.40;;;9.29;100.00;93989.72;643118;217;31539;-76
2022/04/07 03:27:32;;;;;;;0.40;0.30;;;8.80;1.40;;;9.34;100.00;93981.21;619166;224;31980;-76
2022/04/07 03:30:13;;;;;;;0.40;0.30;;;8.70;1.40;;;9.22;100.00;93984.31;646425;216;31553;-76
2022/04/07 03:32:55;;;;;;;0.50;0.30;;;8.60;1.40;;;9.12;100.00;93978.09;620687;226;32305;-76
2022/04/07 03:35:55;;;;;;;0.68;0.45;;;8.40;1.40;;;8.84;100.00;93985.57;619480;226;43308;-75
2022/04/07 03:38:38;;;;;;;0.40;0.30;;;8.30;1.40;;;8.90;100.00;93983.18;647173;216;32095;-76
2022/04/07 03:41:19;;;;;;;0.40;0.40;;;8.30;1.40;;;8.69;100.00;93988.81;647039;212;31632;-75
2022/04/07 03:44:03;;;;;;;0.60;0.40;;;8.10;1.40;;;8.80;100.00;93980.64;647304;212;31577;-75
2022/04/07 03:46:43;;;;;;;5.50;0.60;;;8.20;1.40;;;8.47;100.00;93975.08;647927;216;32109;-75
2022/04/07 03:49:25;;;;;;;0.90;0.70;;;7.80;1.40;;;8.35;100.00;93971.30;646523;216;32131;-75
2022/04/07 03:52:08;;;;;;;0.70;0.30;;;7.70;1.40;;;8.30;100.00;93970.78;648130;216;32167;-74
2022/04/07 03:54:49;;;;;;;0.40;0.30;;;7.60;1.40;;;8.43;100.00;93968.56;646671;216;42151;-76
2022/04/07 03:57:31;;;;;;;0.40;0.20;;;7.80;1.40;;;8.34;100.00;93974.69;647197;216;31506;-75
2022/04/07 04:00:15;;;;;;;0.50;0.40;;;7.80;1.40;;;8.43;100.00;93970.92;647758;216;31497;-74
2022/04/07 04:02:55;;;;;;;0.40;0.20;;;7.80;1.40;;;8.29;100.00;93978.30;647589;212;31670;-75
2022/04/07 04:05:37;;;;;;;0.60;0.40;;;7.90;1.40;;;8.41;100.00;93976.56;647090;213;31494;-75
2022/04/07 04:08:22;;;;;;;0.60;0.50;;;7.80;1.40;;;8.44;100.00;93982.84;636975;212;31651;-76
2022/04/07 04:11:03;;;;;;;0.40;0.30;;;7.80;1.40;;;8.37;100.00;93974.77;648044;216;31499;-74
2022/04/07 04:13:45;;;;;;;0.40;0.30;;;7.90;1.40;;;8.33;100.00;93987.77;645913;212;31537;-74
2022/04/07 04:16:30;;;;;;;0.50;0.30;;;7.70;1.40;;;8.53;100.00;94005.11;647287;216;32152;-76
2022/04/07 04:19:11;;;;;;;0.50;0.30;;;8.10;1.40;;;8.55;100.00;93988.69;619510;222;32378;-76
2022/04/07 04:21:53;;;;;;;0.60;0.50;;;8.10;1.40;;;8.71;100.00;93981.90;648399;216;31819;-75
2022/04/07 04:24:35;;;;;;;0.60;0.30;;;8.20;1.40;;;8.72;100.00;93984.51;646801;216;31951;-74
2022/04/07 04:27:19;;;;;;;0.50;0.40;;;8.20;1.40;;;8.70;100.00;93990.80;647640;216;31580;-75
2022/04/07 04:30:02;;;;;;;0.60;0.60;;;8.20;1.40;;;8.72;100.00;93989.99;646997;212;31553;-75
2022/04/07 04:32:44;;;;;;;0.50;0.30;;;8.20;1.40;;;8.59;100.00;93987.52;647766;212;31547;-76
2022/04/07 04:35:56;;;;;;;0.40;0.30;;;8.00;1.40;;;8.56;100.00;93981.16;646059;216;31525;-76
2022/04/07 04:38:37;;;;;;;0.53;0.43;;;8.10;1.40;;;8.51;100.00;93996.28;648191;212;31656;-74
2022/04/07 04:41:19;;;;;;;1.30;0.70;;;8.00;1.40;;;8.56;100.00;93971.06;647343;216;31501;-75
2022/04/07 04:44:01;;;;;;;0.40;0.32;;;8.00;1.40;;;8.42;100.00;93986.25;646430;212;43756;-77
2022/04/07 04:46:47;;;;;;;0.80;0.40;;;7.80;1.40;;;8.32;100.00;93971.43;646508;216;31851;-75
2022/04/07 04:49:37;;;;;;;0.60;0.47;;;7.80;1.40;;;8.22;100.00;93972.72;621542;222;31861;-76
2022/04/07 04:52:30;;;;;;;0.40;0.30;;;7.60;1.40;;;8.29;100.00;93974.14;641990;216;31480;-75
2022/04/07 04:55:12;;;;;;;0.40;0.30;;;7.80;1.40;;;8.38;100.00;93976.40;649272;216;32376;-75
2022/04/07 04:58:03;;;;;;;0.40;0.30;;;7.80;1.40;;;8.37;100.00;93964.87;621957;226;32050;-75
2022/04/07 05:00:53;;;;;;;0.40;0.40;;;7.80;1.40;;;8.28;100.00;93972.17;646223;216;31494;-76
2022/04/07 05:03:34;;;;;;;0.40;0.20;;;7.80;1.40;;;8.32;100.00;93972.64;648303;212;31497;-74
2022/04/07 05:06:20;;;;;;;0.40;0.20;;;7.70;1.40;;;8.37;100.00;93981.89;648390;216;31502;-74
2022/04/07 05:09:07;;;;;;;0.70;0.50;;;7.90;1.40;;;8.52;100.00;93982.11;647866;216;31507;-76
2022/04/07 05:11:58;;;;;;;0.40;0.30;;;8.00;1.40;;;8.46;100.00;93970.85;648592;216;31523;-75
2022/04/07 05:14:41;;;;;;;0.50;0.30;;;8.00;1.40;;;8.55;100.00;93964.17;647190;216;32051;-76
2022/04/07 05:17:27;;;;;;;0.60;0.30;;;8.00;1.40;;;8.45;100.00;93961.84;648489;216;31471;-75
2022/04/07 05:20:10;;;;;;;1.70;0.60;;;7.90;1.40;;;8.45;100.00;93983.59;620802;222;32095;-76
2022/04/07 05:25:26;;;;;;;0.40;0.30;;;8.10;1.40;;;8.49;100.00;93969.52;623147;226;32001;-76
2022/04/07 05:28:10;;;;;;;0.67;0.30;;;7.90;1.40;;;8.47;100.00;93949.34;649303;212;31474;-76
2022/04/07 05:30:56;;;;;;;1.90;0.60;;;7.90;1.40;;;8.50;100.00;93961.27;623289;222;32606;-75
2022/04/07 05:36:00;;;;;;;0.50;0.40;;;8.10;1.40;;;8.58;100.00;93964.17;645281;216;31531;-74
2022/04/07 05:38:54;;;;;;;0.90;0.80;;;8.00;1.40;;;8.56;100.00;93961.55;650547;216;31464;-76
2022/04/07 05:41:36;;;;;;;0.60;0.40;;;8.00;1.40;;;8.62;100.00;93961.97;637456;221;31614;-76
2022/04/07 05:44:18;;;;;;;0.70;0.30;;;8.00;1.40;;;8.60;100.00;93951.44;648684;216;31483;-75
2022/04/07 05:47:00;;;;;;;0.70;0.70;;;8.00;1.40;;;8.62;100.00;93943.60;647992;214;31522;-74
2022/04/07 05:49:49;;;;;;;0.50;0.40;;;8.10;1.40;;;8.79;100.00;93937.23;648789;213;31478;-75
2022/04/07 05:52:36;;;;;;;0.43;0.40;;;8.30;1.40;;;8.85;100.00;93929.88;647032;216;31524;-75
2022/04/07 05:55:34;;;;;;;0.50;0.37;;;8.30;1.40;;;8.85;100.00;93922.23;649552;216;31612;-76
2022/04/07 05:58:16;;;;;;;0.70;0.70;;;8.30;1.40;;;8.92;100.00;93916.28;641781;221;23516;-76
2022/04/07 06:01:00;;;;;;;0.40;0.20;;;8.30;1.40;;;8.98;100.00;93911.20;632862;220;31660;-76
2022/04/07 06:03:54;;;;;;;0.57;0.40;;;8.50;1.40;;;9.13;100.00;93914.52;651739;212;32371;-76
2022/04/07 06:06:48;;;;;;;0.40;0.30;;;8.60;1.40;;;9.27;100.00;93926.21;619327;222;32113;-75
2022/04/07 06:09:36;;;;;;;0.65;0.47;;;8.70;1.40;;;9.38;100.00;93921.70;620319;222;31798;-75
2022/04/07 06:12:23;;;;;;;0.40;0.30;;;8.80;1.40;;;9.46;100.00;93921.09;648961;212;31461;-76
2022/04/07 06:15:11;;;;;;;0.50;0.32;;;8.90;1.40;;;9.49;100.00;93904.72;646806;216;31612;-75
2022/04/07 06:17:53;;;;;;;0.40;0.20;;;8.90;1.40;;;9.47;100.00;93912.54;646829;212;31876;-77
2022/04/07 06:20:41;;;;;;;0.40;0.30;;;8.80;1.40;;;9.47;100.00;93915.02;623833;226;31925;-77
2022/04/07 06:23:31;;;;;;;0.50;0.30;;;8.80;1.40;;;9.34;100.00;93918.77;647366;216;31540;-75
2022/04/07 06:26:33;;;;;;;;;;;;;;;;;;;;;
2022/04/07 06:29:14;;;;;;;0.50;0.30;;;8.70;1.40;;;9.35;100.00;93888.52;613684;226;31951;-77
2022/04/07 06:31:58;;;;;;;0.40;0.20;;;8.80;1.40;;;9.40;100.00;93895.34;630745;221;31684;-75
2022/04/07 06:35:53;;;;;;;0.40;0.30;;;8.90;1.40;;;9.71;100.00;93897.09;645991;216;32154;-77
2022/04/07 06:38:34;;;;;;;0.70;0.30;;;9.10;1.40;;;9.85;100.00;93895.19;647333;214;31629;-75
2022/04/07 06:41:16;;;;;;;0.40;0.30;;;9.30;1.40;;;9.96;100.00;93894.55;646448;216;31563;-76
2022/04/07 06:43:58;;;;;;;0.40;0.20;;;9.50;1.40;;;10.14;100.00;93894.73;647140;216;31538;-75
2022/04/07 06:46:40;;;;;;;0.70;0.40;;;9.60;1.40;;;10.30;100.00;93891.13;617342;225;31860;-75
2022/04/07 06:49:23;;;;;;;0.40;0.20;;;9.70;1.40;;;10.33;100.00;93871.03;620620;226;31877;-77
2022/04/07 06:52:11;;;;;;;0.40;0.20;;;9.80;1.40;;;10.48;100.00;93871.20;645630;216;31498;-74
2022/04/07 06:54:53;;;;;;;0.50;0.40;;;9.90;1.40;;;10.57;100.00;93870.56;645673;216;31530;-75
2022/04/07 07:00:11;;;;;;;0.60;0.30;;;10.10;1.40;;;10.79;100.00;93865.13;646333;212;31503;-75
2022/04/07 07:02:52;;;;;;;0.50;0.20;;;10.20;1.40;;;10.76;100.00;93873.58;646561;212;31505;-75
2022/04/07 07:05:37;;;;;;;0.50;0.20;;;10.30;1.40;;;10.92;100.00;93883.25;646815;212;31573;-76
2022/04/07 07:08:36;;;;;;;2.70;0.30;;;10.40;1.40;;;10.94;100.00;93864.22;637103;212;32012;-77
2022/04/07 07:11:18;;;;;;;0.40;0.20;;;10.50;1.40;;;11.01;100.00;93869.61;619257;226;31978;-77
2022/04/07 07:14:00;;;;;;;0.40;0.20;;;10.50;1.40;;;11.10;100.00;93858.91;647478;216;31643;-78
2022/04/07 07:16:44;;;;;;;0.40;0.20;;;10.70;1.40;;;11.27;100.00;93863.47;618641;225;32537;-75
2022/04/07 07:19:31;;;;;;;0.40;0.20;;;10.80;1.40;;;11.39;100.00;93858.07;648010;212;31657;-78
2022/04/07 07:22:19;;;;;;;0.40;0.20;;;10.90;1.40;;;11.42;95.97;93868.91;646695;216;31700;-75
2022/04/07 07:25:01;;;;;;;0.40;0.30;;;10.90;1.40;;;11.62;97.85;93872.36;619026;226;31936;-75
2022/04/07 07:27:45;;;;;;;0.40;0.20;;;11.10;1.40;;;11.49;92.39;93855.37;647301;216;31489;-78
2022/04/07 07:30:29;;;;;;;0.40;0.20;;;11.00;1.40;;;11.58;93.54;93848.41;648691;212;31491;-78
2022/04/07 07:35:58;;;;;;;0.40;0.20;;;11.00;1.40;;;11.62;91.52;93842.35;615539;224;43114;-74
2022/04/07 07:38:45;;;;;;;0.40;0.20;;;11.10;1.40;;;11.72;91.76;93851.35;619031;226;31782;-78
2022/04/07 07:41:29;;;;;;;0.50;0.30;;;11.30;1.40;;;11.95;93.17;93841.97;646598;212;31555;-74
2022/04/07 07:44:11;;;;;;;0.60;0.20;;;11.40;1.40;;;12.00;90.84;93830.69;647416;212;31496;-74
2022/04/07 07:46:52;;;;;;;0.40;0.20;;;11.50;1.40;;;12.08;90.81;93839.45;647206;216;31504;-75
2022/04/07 07:49:35;;;;;;;0.60;0.30;;;11.60;1.40;;;12.13;87.18;93825.94;645492;216;42108;-76
2022/04/07 07:52:16;;;;;;;0.40;0.30;;;11.70;1.40;;;12.32;87.02;93833.33;631993;221;42309;-75
2022/04/07 07:54:57;;;;;;;0.40;0.30;;;11.80;1.40;;;12.32;85.83;93825.22;618429;222;31854;-74
2022/04/07 07:57:39;;;;;;;0.40;0.30;;;11.90;1.40;;;12.31;83.97;93837.77;646515;212;42118;-74
2022/04/07 08:00:24;;;;;;;0.40;0.20;;;11.90;1.40;;;12.34;83.81;93828.84;621225;226;42715;-78
2022/04/07 08:03:05;;;;;;;0.40;0.20;;;11.80;1.40;;;12.37;82.39;93808.98;646763;216;42090;-78
2022/04/07 08:05:48;;;;;;;0.40;0.20;;;11.90;1.40;;;12.53;81.25;93819.41;644458;216;42713;-75
2022/04/07 08:08:36;;;;;;;1.02;0.30;;;12.00;1.40;;;12.46;80.73;93816.98;647700;216;31457;-77
2022/04/07 08:11:24;;;;;;;0.40;0.20;;;12.00;1.40;;;12.44;80.09;93827.92;646828;216;42218;-74
2022/04/07 08:14:11;;;;;;;0.40;0.30;;;12.00;1.40;;;12.75;81.96;93812.12;647314;216;43023;-77
2022/04/07 08:16:54;;;;;;;0.40;0.20;;;12.40;1.40;;;12.76;79.49;93811.30;646726;216;32662;-77
2022/04/07 08:19:36;;;;;;;0.70;0.20;;;12.20;1.40;;;12.73;78.75;93815.84;648385;216;42126;-78
2022/04/07 08:22:23;;;;;;;0.40;0.20;;;12.20;1.40;;;12.60;79.48;93809.24;646256;212;32080;-76
2022/04/07 08:25:12;;;;;;;0.40;0.20;;;12.20;1.40;;;12.72;77.94;93798.22;643200;215;33214;-77
2022/04/07 08:27:53;;;;;;;1.50;0.30;;;12.30;1.40;;;12.73;77.37;93806.95;620356;226;32009;-78
2022/04/07 08:30:37;;;;;;;0.40;0.30;;;12.30;1.40;;;12.88;76.87;93801.53;646662;216;42470;-76
2022/04/07 08:35:52;;;;;;;0.40;0.30;;;12.40;1.40;;;13.06;76.18;93795.52;646157;212;31532;-77
2022/04/07 08:38:34;;;;;;;0.40;0.20;;;12.60;1.40;;;12.81;71.82;93788.31;619398;222;43651;-74
2022/04/07 08:41:19;;;;;;;0.40;0.20;;;12.40;1.40;;;13.00;72.88;93756.31;647172;212;31497;-78
2022/04/07 08:44:01;;;;;;;0.50;0.30;;;12.60;1.40;;;13.17;74.19;93787.95;648099;216;42286;-78
2022/04/07 08:46:51;;;;;;;0.50;0.30;;;12.80;1.40;;;13.31;72.13;93789.36;646332;212;42589;-75
2022/04/07 08:49:32;;;;;;;0.40;0.20;;;12.90;1.40;;;13.73;74.91;93773.37;646676;216;31594;-75
2022/04/07 08:52:20;;;;;;;0.60;0.40;;;13.30;1.40;;;13.93;72.49;93763.84;646425;212;32172;-78
2022/04/07 08:55:05;;;;;;;0.40;0.20;;;13.60;1.40;;;14.04;69.35;93755.19;620646;222;31824;-78
2022/04/07 08:57:45;;;;;;;0.50;0.20;;;13.50;1.40;;;13.86;69.44;93764.39;648554;216;31458;-76
2022/04/07 09:00:36;;;;;;;0.50;0.30;;;13.40;1.40;;;14.36;68.05;93748.23;646035;216;31484;-75
2022/04/07 09:03:24;;;;;;;0.40;0.20;;;14.10;1.40;;;15.17;63.92;93739.36;632400;222;33094;-79
2022/04/07 09:06:11;;;;;;;0.40;0.20;;;16.00;1.40;;;16.09;60.94;93736.91;645983;216;31509;-74
2022/04/07 09:08:56;;;;;;;0.50;0.20;;;16.80;1.40;;;15.83;58.25;93756.97;638796;216;31877;-76
2022/04/07 09:11:37;;;;;;;0.40;0.20;;;16.00;1.40;;;16.13;59.46;93716.99;618821;225;32016;-75
2022/04/07 09:14:25;;;;;;;0.80;0.30;;;16.90;1.40;;;16.68;56.36;93736.32;647605;212;31906;-76
2022/04/07 09:17:07;;;;;;;0.60;0.30;;;17.00;1.40;;;16.72;55.72;93741.41;648210;216;31761;-77
2022/04/07 09:19:50;;;;;;;0.60;0.30;;;17.00;1.40;;;17.41;56.12;93719.23;648447;216;31501;-79
2022/04/07 09:22:37;;;;;;;0.40;0.20;;;18.50;1.40;;;17.11;54.43;93718.59;647986;216;31508;-76
2022/04/07 09:25:22;;;;;;;0.40;0.20;;;17.70;1.40;;;17.73;54.07;93720.91;647928;216;31677;-76
2022/04/07 09:28:03;;;;;;;0.40;0.20;;;17.60;1.40;;;17.31;53.96;93723.03;648101;216;31550;-78
2022/04/07 09:30:45;;;;;;;0.40;0.20;;;17.50;1.40;;;16.92;54.32;93702.75;648202;212;31467;-78
2022/04/07 09:36:02;;;;;;;0.62;0.20;;;17.40;1.40;;;17.18;51.04;93711.01;646481;216;31955;-75
2022/04/07 09:38:44;;;;;;;0.40;0.20;;;17.00;1.40;;;16.92;51.95;93713.66;647566;216;31497;-77
2022/04/07 09:41:25;;;;;;;0.50;0.30;;;16.30;1.40;;;16.79;53.11;93681.77;647442;216;31475;-75
2022/04/07 09:44:09;;;;;;;0.40;0.20;;;17.30;1.40;;;17.31;51.62;93700.52;618872;226;31813;-75
2022/04/07 09:46:50;;;;;;;1.40;0.50;;;17.60;1.40;;;18.61;51.25;93673.63;619901;222;31878;-77
2022/04/07 09:49:38;;;;;;;1.10;0.20;;;19.00;1.40;;;17.52;50.69;93701.66;645895;216;31501;-76
2022/04/07 09:52:23;;;;;;;0.65;0.20;;;17.00;1.40;;;16.64;54.02;93671.39;645729;216;32057;-75
2022/04/07 09:55:08;;;;;;;0.60;0.40;;;16.40;1.40;;;16.23;53.49;93680.70;619955;226;32352;-75
2022/04/07 09:57:49;;;;;;;0.73;0.30;;;15.60;1.40;;;15.69;54.17;93686.09;647192;212;31526;-78
2022/04/07 10:00:37;;;;;;;0.40;0.30;;;14.80;1.40;;;15.15;55.58;93656.80;645582;216;31495;-75
2022/04/07 10:03:25;;;;;;;0.50;0.30;;;14.40;1.40;;;14.75;58.66;93648.64;648171;212;31672;-76
2022/04/07 10:06:09;;;;;;;0.70;0.30;;;14.10;1.40;;;14.68;60.95;93659.83;647644;216;31476;-77
2022/04/07 10:08:51;;;;;;;0.50;0.25;;;14.10;1.40;;;14.84;60.97;93646.38;632668;221;42450;-78
2022/04/07 10:11:33;;;;;;;0.43;0.20;;;14.50;1.40;;;15.87;56.96;93625.09;646971;216;31495;-79
2022/04/07 10:14:15;;;;;;;0.60;0.30;;;15.60;1.40;;;15.90;59.38;93632.42;647090;212;31480;-77
2022/04/07 10:17:02;;;;;;;1.00;0.40;;;15.60;1.40;;;15.99;56.85;93611.32;642071;216;32025;-76
2022/04/07 10:19:52;;;;;;;0.40;0.20;;;15.40;1.40;;;16.13;57.17;93616.36;646981;212;31477;-78
2022/04/07 10:23:26;;;;;;;0.60;0.30;;;15.50;1.40;;;16.27;56.13;93619.31;646655;212;31399;-80
2022/04/07 10:26:14;;;;;;;0.47;0.20;;;16.40;1.40;;;16.41;52.73;93605.80;646227;216;31572;-76
2022/04/07 10:28:56;;;;;;;0.40;0.30;;;16.70;1.40;;;17.66;55.94;93588.80;647646;216;31617;-76
2022/04/07 10:31:44;;;;;;;0.40;0.30;;;18.40;1.40;;;19.24;49.58;93565.25;647227;216;42224;-77
2022/04/07 10:35:53;;;;;;;0.50;0.30;;;19.40;1.40;;;18.73;47.45;93567.31;646545;216;31764;-75
2022/04/07 10:38:41;;;;;;;0.40;0.20;;;17.60;1.40;;;17.26;51.09;93567.84;647714;216;31470;-78
2022/04/07 10:41:51;;;;;;;0.40;0.20;;;16.50;1.40;;;16.61;52.79;93553.64;645524;216;31748;-75
2022/04/07 10:44:33;;;;;;;0.50;0.28;;;16.00;1.40;;;16.18;53.15;93556.41;646712;216;42177;-75
2022/04/07 10:47:15;;;;;;;1.95;0.20;;;15.10;1.40;;;16.01;57.88;93551.67;634009;217;31640;-76
2022/04/07 10:49:59;;;;;;;0.40;0.20;;;15.40;1.40;;;15.93;54.35;93563.48;647997;216;31480;-75
2022/04/07 10:52:44;;;;;;;0.40;0.20;;;15.10;1.40;;;15.88;54.92;93564.20;646430;216;31876;-75
2022/04/07 10:55:32;;;;;;;4.00;0.30;;;15.30;1.40;;;15.65;55.04;93601.20;647292;212;31481;-75
2022/04/07 10:58:15;;;;;;;0.40;0.20;;;15.00;1.40;;;15.74;53.30;93558.53;647797;216;31489;-77
2022/04/07 11:00:57;;;;;;;0.50;0.30;;;15.10;1.40;;;15.84;54.90;93540.55;628572;222;31882;-77
2022/04/07 11:03:41;;;;;;;1.70;0.40;;;15.10;1.40;;;15.42;55.50;93519.55;648673;216;31459;-78
2022/04/07 11:06:22;;;;;;;0.40;0.20;;;14.80;1.40;;;15.33;56.26;93534.03;647281;212;31471;-78
2022/04/07 11:09:12;;;;;;;0.40;0.20;;;14.70;1.40;;;15.09;55.54;93559.72;647681;216;31463;-77
2022/04/07 11:11:53;;;;;;;0.90;0.30;;;14.50;1.40;;;15.23;56.72;93530.25;648916;212;31473;-78
2022/04/07 11:14:35;;;;;;;0.40;0.20;;;14.70;1.40;;;15.43;56.60;93525.20;646348;216;40965;-77
2022/04/07 11:17:51;;;;;;;0.40;0.30;;;14.80;1.40;;;15.39;56.10;93519.14;647941;212;42117;-77
2022/04/07 11:20:33;;;;;;;1.40;0.40;;;14.80;1.40;;;15.58;55.75;93521.49;647615;212;42106;-76
2022/04/07 11:23:16;;;;;;;0.40;0.20;;;14.70;1.40;;;15.44;56.93;93502.78;646860;216;31659;-75
2022/04/07 11:26:01;;;;;;;0.40;0.20;;;14.70;1.40;;;15.22;56.81;93505.79;645630;216;31486;-76
2022/04/07 11:29:06;;;;;;;0.43;0.22;;;14.50;1.40;;;15.07;57.91;93517.89;648433;216;31475;-76
2022/04/07 11:31:49;;;;;;;1.50;0.40;;;14.40;1.40;;;15.00;58.61;93513.05;647988;212;31488;-76
2022/04/07 11:36:15;;;;;;;0.70;0.50;;;14.30;1.40;;;15.03;58.96;93509.90;648648;216;31473;-78
2022/04/07 11:38:57;;;;;;;0.70;0.40;;;14.40;1.40;;;15.29;59.42;93482.95;647928;212;31466;-77
2022/04/07 11:41:42;;;;;;;0.68;0.40;;;14.70;1.40;;;15.38;58.26;93488.69;646857;212;31623;-78
2022/04/07 11:44:20;;;;;;;0.80;0.40;;;14.90;1.40;;;15.79;57.79;93482.08;620395;226;42659;-78
2022/04/07 11:47:03;;;;;;;1.33;0.37;;;15.30;1.40;;;16.17;55.93;93492.73;619452;226;42795;-77
2022/04/07 11:49:51;;;;;;;0.90;0.30;;;16.00;1.40;;;16.60;56.38;93489.84;647207;216;32466;-76
2022/04/07 11:52:32;;;;;;;0.40;0.22;;;16.00;1.40;;;16.30;57.23;93475.74;618485;226;32139;-75
2022/04/07 11:55:17;;;;;;;0.40;0.20;;;15.60;1.40;;;16.35;58.44;93472.18;646702;216;31548;-75
2022/04/07 11:57:59;;;;;;;0.70;0.28;;;15.60;1.40;;;16.83;54.67;93479.35;645050;216;31487;-75
2022/04/07 12:00:43;;;;;;;1.00;0.30;;;16.00;1.40;;;16.43;57.11;93476.63;647068;212;31503;-77
2022/04/07 12:03:31;;;;;;;1.70;0.30;;;15.90;1.40;;;16.38;55.04;93469.16;618203;226;32200;-75
2022/04/07 12:06:13;;;;;;;0.62;0.30;;;15.50;1.40;;;16.28;58.71;93458.89;619486;222;32515;-75
2022/04/07 12:09:01;;;;;;;0.50;0.30;;;15.80;1.40;;;16.97;57.81;93461.61;647941;216;31452;-78
2022/04/07 12:11:42;;;;;;;0.40;0.20;;;16.60;1.40;;;16.98;54.06;93453.97;647224;216;31710;-77
2022/04/07 12:14:29;;;;;;;0.40;0.20;;;16.10;1.40;;;16.62;55.92;93470.84;646667;212;31781;-74